Time;durP1;ratioP1;P1;durP2;ratioP2;P2;SDS_P1;SDS_P2;PMS_P1;PMS_P2;Temp;Humidity;BMP_temperature;BMP_pressure;BME280_temperature;BME280_humidity;BME280_pressure;Samples;Min_cycle;Max_cycle;Signal;HPM_P1;HPM_P2
2023/06/18 00:02:05;;;;;;;15.13;10.45;;;20.10;57.90;;;;;;4970684;28;20158;-87
2023/06/18 00:04:32;;;;;;;14.52;10.13;;;20.10;58.00;;;;;;4954644;28;20083;-87
2023/06/18 00:06:59;;;;;;;15.38;10.80;;;20.00;57.90;;;;;;4935145;28;20055;-86
2023/06/18 00:09:28;;;;;;;16.60;11.17;;;20.00;57.70;;;;;;4935181;28;20609;-87
2023/06/18 00:11:55;;;;;;;17.13;11.43;;;19.90;57.90;;;;;;4983405;28;20052;-87
2023/06/18 00:14:22;;;;;;;17.95;11.90;;;19.70;58.20;;;;;;4954789;28;20078;-87
2023/06/18 00:16:50;;;;;;;17.05;10.95;;;19.70;58.40;;;;;;4970412;28;20134;-87
2023/06/18 00:19:17;;;;;;;17.85;12.20;;;19.70;58.50;;;;;;4986926;28;20051;-87
2023/06/18 00:21:44;;;;;;;16.30;10.67;;;19.70;58.40;;;;;;4977952;28;20135;-87
2023/06/18 00:24:10;;;;;;;17.23;10.50;;;19.50;58.40;;;;;;4954465;28;20134;-87
2023/06/18 00:26:39;;;;;;;15.60;11.13;;;19.50;58.40;;;;;;4954060;28;20158;-87
2023/06/18 00:29:06;;;;;;;19.08;12.00;;;19.50;58.50;;;;;;4970472;28;20482;-87
2023/06/18 00:31:35;;;;;;;16.98;11.00;;;19.50;58.50;;;;;;4953295;28;20890;-87
2023/06/18 00:34:06;;;;;;;18.30;11.77;;;19.50;58.70;;;;;;4954278;28;20113;-87
2023/06/18 00:36:33;;;;;;;19.38;12.23;;;19.40;58.80;;;;;;4970465;28;20514;-88
2023/06/18 00:39:02;;;;;;;19.67;13.48;;;19.40;58.90;;;;;;4978786;28;20517;-87
2023/06/18 00:41:30;;;;;;;21.33;13.05;;;19.30;58.90;;;;;;4953763;28;20202;-88
2023/06/18 00:43:59;;;;;;;21.08;14.02;;;19.30;59.30;;;;;;4954341;28;20062;-87
2023/06/18 00:46:30;;;;;;;19.20;13.10;;;19.20;59.50;;;;;;4970131;28;20623;-87
2023/06/18 00:48:58;;;;;;;19.45;12.32;;;19.20;59.80;;;;;;4955577;28;20055;-87
2023/06/18 00:51:27;;;;;;;18.50;12.20;;;19.20;59.90;;;;;;4952580;28;20055;-87
2023/06/18 00:53:56;;;;;;;17.90;11.43;;;19.20;59.90;;;;;;4952245;28;20055;-87
2023/06/18 00:56:25;;;;;;;19.40;12.65;;;19.10;59.90;;;;;;4951814;28;20154;-87
2023/06/18 00:58:52;;;;;;;21.33;12.97;;;19.00;60.00;;;;;;4966851;28;20055;-87
2023/06/18 01:01:20;;;;;;;19.13;11.98;;;18.90;60.30;;;;;;4967826;28;20238;-87
2023/06/18 01:03:48;;;;;;;17.73;11.15;;;18.90;60.40;;;;;;4952920;28;20055;-88
2023/06/18 01:06:17;;;;;;;17.65;12.23;;;18.80;60.50;;;;;;4951755;28;20102;-87
2023/06/18 01:08:48;;;;;;;22.55;13.95;;;18.70;60.50;;;;;;4960495;28;20048;-87
2023/06/18 01:11:19;;;;;;;20.13;12.60;;;18.70;60.70;;;;;;4968104;28;20411;-87
2023/06/18 01:13:46;;;;;;;21.30;13.52;;;18.70;61.00;;;;;;4953654;28;20489;-88
2023/06/18 01:16:14;;;;;;;20.83;13.13;;;18.60;61.10;;;;;;4953174;28;20202;-88
2023/06/18 01:18:50;;;;;;;21.58;13.25;;;18.60;61.00;;;;;;4986221;28;20543;-87
2023/06/18 01:21:21;;;;;;;19.77;12.82;;;18.60;60.80;;;;;;4969045;28;20094;-88
2023/06/18 01:23:59;;;;;;;19.40;13.53;;;18.50;61.00;;;;;;4958495;28;20106;-87
2023/06/18 01:26:27;;;;;;;21.67;13.48;;;18.40;61.30;;;;;;4974988;28;20488;-87
2023/06/18 01:28:58;;;;;;;22.35;12.95;;;18.40;61.50;;;;;;4969236;28;20114;-88
2023/06/18 01:31:26;;;;;;;18.55;12.07;;;18.30;61.80;;;;;;4952969;28;20055;-86
2023/06/18 01:33:54;;;;;;;20.13;13.40;;;18.30;61.90;;;;;;4969681;28;20126;-87
2023/06/18 01:36:47;;;;;;;19.50;12.90;;;18.30;61.80;;;;;;4969284;28;20095;-87
2023/06/18 01:39:21;;;;;;;22.02;14.02;;;18.30;61.50;;;;;;4953191;28;20058;-87
2023/06/18 01:41:52;;;;;;;21.50;13.32;;;18.20;61.80;;;;;;4952055;28;20051;-88
2023/06/18 01:44:24;;;;;;;21.20;13.50;;;18.10;62.00;;;;;;4953102;28;20054;-87
2023/06/18 01:46:55;;;;;;;21.10;13.90;;;18.10;62.30;;;;;;4952523;28;20043;-88
2023/06/18 01:49:26;;;;;;;21.77;14.30;;;18.00;62.60;;;;;;4949707;28;20138;-87
2023/06/18 01:51:54;;;;;;;20.60;13.15;;;18.00;62.80;;;;;;4951274;28;20086;-86
2023/06/18 01:54:23;;;;;;;19.27;12.70;;;18.00;62.80;;;;;;4985159;28;20529;-88
2023/06/18 01:56:51;;;;;;;20.58;12.57;;;18.00;62.80;;;;;;4985166;28;20057;-87
2023/06/18 01:59:19;;;;;;;22.48;14.10;;;17.90;62.70;;;;;;4953348;28;20501;-87
2023/06/18 02:01:46;;;;;;;21.67;13.10;;;17.80;62.80;;;;;;4952642;28;20066;-87
2023/06/18 02:04:13;;;;;;;21.00;13.25;;;17.80;63.00;;;;;;4968884;28;20489;-87
2023/06/18 02:06:42;;;;;;;21.00;13.65;;;17.80;63.10;;;;;;4965171;28;20481;-86
2023/06/18 02:09:09;;;;;;;23.90;14.55;;;17.80;63.30;;;;;;4933225;28;20439;-87
2023/06/18 02:11:36;;;;;;;22.10;13.43;;;17.80;63.40;;;;;;4947771;28;20062;-87
2023/06/18 02:14:03;;;;;;;22.53;13.83;;;17.80;63.50;;;;;;4968698;28;20122;-87
2023/06/18 02:16:30;;;;;;;22.70;13.73;;;17.80;63.50;;;;;;4955385;28;20102;-87
2023/06/18 02:18:57;;;;;;;21.95;13.95;;;17.80;63.50;;;;;;4968375;28;20090;-88
2023/06/18 02:21:24;;;;;;;20.20;13.35;;;17.80;63.30;;;;;;4967990;28;20086;-87
2023/06/18 02:23:55;;;;;;;20.65;13.68;;;17.70;63.40;;;;;;4968357;28;20067;-87
2023/06/18 02:26:22;;;;;;;18.37;11.70;;;17.70;63.50;;;;;;4973677;28;20530;-87
2023/06/18 02:28:49;;;;;;;18.30;11.15;;;17.70;63.50;;;;;;4968404;28;20051;-87
2023/06/18 02:31:17;;;;;;;18.77;11.70;;;17.70;63.40;;;;;;4967831;28;20051;-87
2023/06/18 02:33:44;;;;;;;17.58;11.75;;;17.60;63.60;;;;;;4967019;28;20146;-87
2023/06/18 02:36:12;;;;;;;20.63;11.80;;;17.60;63.60;;;;;;4953038;28;20608;-87
2023/06/18 02:38:40;;;;;;;18.67;10.57;;;17.50;63.70;;;;;;4952186;28;20585;-87
2023/06/18 02:41:10;;;;;;;17.65;11.45;;;17.50;63.70;;;;;;4968381;28;20053;-87
2023/06/18 02:43:37;;;;;;;20.55;11.88;;;17.50;63.70;;;;;;4960494;28;20711;-88
2023/06/18 02:46:04;;;;;;;20.75;12.45;;;17.50;63.80;;;;;;4968367;28;20077;-87
2023/06/18 02:48:31;;;;;;;22.27;13.50;;;17.40;63.90;;;;;;4968114;28;20173;-87
2023/06/18 02:50:58;;;;;;;19.63;12.83;;;17.40;64.00;;;;;;4950702;28;20665;-87
2023/06/18 02:53:25;;;;;;;22.75;13.25;;;17.40;64.00;;;;;;4967710;28;20055;-86
2023/06/18 02:55:52;;;;;;;21.38;12.10;;;17.30;64.00;;;;;;4951837;28;20081;-87
2023/06/18 02:58:27;;;;;;;19.40;12.35;;;17.30;64.10;;;;;;4950797;28;20154;-87
2023/06/18 03:00:55;;;;;;;25.35;15.55;;;17.30;64.10;;;;;;4965956;28;20059;-87
2023/06/18 03:03:23;;;;;;;23.13;13.90;;;17.30;63.90;;;;;;4967923;28;20057;-87
2023/06/18 03:05:52;;;;;;;20.45;12.10;;;17.20;63.80;;;;;;4968346;28;20051;-87
2023/06/18 03:08:20;;;;;;;21.40;13.50;;;17.20;63.90;;;;;;4960793;28;20062;-86
2023/06/18 03:10:51;;;;;;;20.08;12.55;;;17.20;64.00;;;;;;4984257;28;20182;-87
2023/06/18 03:13:19;;;;;;;20.40;12.65;;;17.20;64.10;;;;;;4951843;28;20119;-87
2023/06/18 03:15:50;;;;;;;20.07;11.63;;;17.10;64.00;;;;;;4952273;28;20050;-87
2023/06/18 03:18:19;;;;;;;19.25;11.18;;;17.10;63.80;;;;;;4957018;28;20143;-87
2023/06/18 03:20:46;;;;;;;20.73;12.68;;;17.00;63.80;;;;;;4967360;28;20054;-87
2023/06/18 03:23:13;;;;;;;21.70;13.23;;;17.00;63.80;;;;;;4963703;28;20044;-87
2023/06/18 03:25:45;;;;;;;20.92;13.25;;;17.00;64.00;;;;;;4951526;28;20512;-87
2023/06/18 03:28:20;;;;;;;22.30;13.63;;;17.00;64.00;;;;;;4952083;28;20058;-88
2023/06/18 03:30:47;;;;;;;17.67;11.25;;;16.90;64.10;;;;;;4951491;28;20055;-87
2023/06/18 03:33:17;;;;;;;14.90;8.65;;;16.90;64.20;;;;;;4948010;28;20492;-87
2023/06/18 03:35:46;;;;;;;11.88;7.97;;;16.90;64.30;;;;;;4932583;28;20103;-87
2023/06/18 03:38:15;;;;;;;10.45;7.10;;;16.90;64.30;;;;;;4954742;28;20086;-87
2023/06/18 03:40:42;;;;;;;11.50;8.00;;;16.80;64.20;;;;;;4951402;28;20447;-87
2023/06/18 03:43:12;;;;;;;10.50;6.90;;;16.80;64.20;;;;;;4950305;28;20047;-87
2023/06/18 03:45:40;;;;;;;10.55;7.45;;;16.80;64.20;;;;;;4967627;28;20059;-87
2023/06/18 03:48:08;;;;;;;13.55;9.07;;;16.80;64.40;;;;;;4951671;28;20059;-87
2023/06/18 03:50:42;;;;;;;14.35;9.27;;;16.70;64.40;;;;;;4951247;28;20059;-87
2023/06/18 03:53:09;;;;;;;13.53;8.70;;;16.70;64.40;;;;;;4962422;28;20130;-87
2023/06/18 03:55:37;;;;;;;14.45;9.52;;;16.70;64.50;;;;;;4968203;28;20168;-87
2023/06/18 03:58:30;;;;;;;14.02;8.85;;;16.60;64.70;;;;;;4964368;28;20055;-87
2023/06/18 04:00:59;;;;;;;14.50;9.50;;;16.60;64.50;;;;;;4954316;28;20051;-88
2023/06/18 04:03:27;;;;;;;17.85;10.52;;;16.60;64.90;;;;;;4942123;28;20066;-87
2023/06/18 04:05:55;;;;;;;19.63;11.93;;;16.50;65.10;;;;;;4967109;28;20052;-87
2023/06/18 04:08:22;;;;;;;21.27;12.52;;;16.60;65.50;;;;;;4961457;28;20087;-87
2023/06/18 04:10:49;;;;;;;20.75;13.23;;;16.50;65.90;;;;;;4954619;28;20074;-87
2023/06/18 04:13:17;;;;;;;22.15;13.43;;;16.50;66.20;;;;;;4954595;28;20596;-87
2023/06/18 04:15:44;;;;;;;23.17;14.70;;;16.50;66.50;;;;;;4954789;28;20102;-88
2023/06/18 04:18:14;;;;;;;26.27;16.20;;;16.50;66.70;;;;;;4953684;28;20505;-86
2023/06/18 04:20:41;;;;;;;26.65;15.52;;;16.50;67.10;;;;;;4954225;28;20735;-87
2023/06/18 04:23:09;;;;;;;26.33;15.48;;;16.50;67.20;;;;;;4954103;28;20051;-87
2023/06/18 04:25:37;;;;;;;29.63;17.15;;;16.50;67.50;;;;;;4950812;28;20055;-87
2023/06/18 04:28:04;;;;;;;30.35;16.92;;;16.50;67.50;;;;;;4957409;28;20051;-87
2023/06/18 04:30:31;;;;;;;29.90;16.57;;;16.50;68.00;;;;;;4970611;28;20463;-88
2023/06/18 04:33:01;;;;;;;28.33;17.13;;;16.50;68.20;;;;;;4969870;28;20134;-87
2023/06/18 04:35:29;;;;;;;30.48;17.20;;;16.60;68.70;;;;;;4968937;28;20645;-87
2023/06/18 04:37:56;;;;;;;30.10;17.08;;;16.60;68.90;;;;;;4954138;28;20142;-87
2023/06/18 04:40:23;;;;;;;30.83;17.90;;;16.60;69.10;;;;;;4954503;28;20050;-87
2023/06/18 04:42:50;;;;;;;29.13;17.33;;;16.60;69.30;;;;;;4954006;28;20078;-87
2023/06/18 04:45:24;;;;;;;29.42;17.45;;;16.60;69.50;;;;;;4969926;28;20589;-86
2023/06/18 04:47:51;;;;;;;34.40;19.05;;;16.60;70.00;;;;;;4950533;28;20048;-86
2023/06/18 04:50:19;;;;;;;20.13;11.07;;;16.60;70.60;;;;;;4956462;28;20138;-88
2023/06/18 04:52:50;;;;;;;30.20;16.73;;;16.60;70.80;;;;;;4969635;28;20797;-87
2023/06/18 04:55:19;;;;;;;27.23;15.20;;;16.60;71.20;;;;;;4964775;28;20055;-87
2023/06/18 04:57:46;;;;;;;33.05;18.42;;;16.60;71.70;;;;;;4962433;28;20047;-87
2023/06/18 05:00:14;;;;;;;28.38;15.60;;;16.60;71.80;;;;;;4963158;28;20062;-87
2023/06/18 05:02:45;;;;;;;26.25;15.18;;;16.60;71.90;;;;;;4981360;28;20047;-86
2023/06/18 05:05:12;;;;;;;27.25;16.15;;;16.60;72.30;;;;;;4946373;28;20063;-86
2023/06/18 05:07:40;;;;;;;33.37;18.27;;;16.60;72.80;;;;;;4952834;28;20093;-86
2023/06/18 05:10:10;;;;;;;31.23;17.55;;;16.60;72.90;;;;;;4970163;28;20513;-86
2023/06/18 05:12:37;;;;;;;27.75;16.80;;;16.60;73.10;;;;;;4951606;28;20174;-86
2023/06/18 05:15:05;;;;;;;30.27;16.83;;;16.60;73.30;;;;;;4947782;28;20556;-85
2023/06/18 05:17:32;;;;;;;31.02;17.13;;;16.70;73.30;;;;;;4969518;28;20056;-86
2023/06/18 05:20:03;;;;;;;28.90;16.70;;;16.70;73.40;;;;;;4952403;28;20062;-86
2023/06/18 05:22:31;;;;;;;33.60;18.45;;;16.80;73.80;;;;;;4979438;28;20126;-86
2023/06/18 05:24:59;;;;;;;32.85;19.08;;;16.80;73.70;;;;;;4952488;28;20463;-86
2023/06/18 05:27:31;;;;;;;34.05;18.58;;;16.90;73.90;;;;;;4953430;28;20141;-86
2023/06/18 05:29:59;;;;;;;29.95;17.75;;;16.90;74.30;;;;;;4952260;28;20051;-86
2023/06/18 05:32:27;;;;;;;29.40;17.10;;;16.90;74.50;;;;;;4951094;28;20497;-86
2023/06/18 05:34:55;;;;;;;33.58;19.45;;;17.00;74.70;;;;;;4952075;28;20137;-86
2023/06/18 05:37:22;;;;;;;30.38;18.27;;;17.00;74.70;;;;;;4955474;28;20362;-86
2023/06/18 05:39:52;;;;;;;30.48;17.33;;;17.00;75.00;;;;;;4951538;28;20572;-85
2023/06/18 05:42:20;;;;;;;27.35;15.93;;;17.00;74.90;;;;;;4949821;28;20055;-86
2023/06/18 05:44:49;;;;;;;28.37;17.17;;;17.10;75.00;;;;;;4951270;28;20198;-85
2023/06/18 05:47:16;;;;;;;25.13;15.65;;;17.20;75.10;;;;;;4952018;28;20051;-86
2023/06/18 05:49:44;;;;;;;28.65;17.55;;;17.20;75.00;;;;;;4951123;28;20575;-85
2023/06/18 05:52:11;;;;;;;32.38;18.38;;;17.20;74.60;;;;;;4964246;28;20067;-86
2023/06/18 05:54:38;;;;;;;24.50;16.40;;;17.30;74.30;;;;;;4952930;28;20051;-86
2023/06/18 05:57:06;;;;;;;35.10;19.30;;;17.40;75.00;;;;;;4950433;28;20059;-86
2023/06/18 05:59:33;;;;;;;33.65;19.40;;;17.40;74.80;;;;;;4953516;28;20054;-86
2023/06/18 06:02:09;;;;;;;30.58;17.33;;;17.50;75.00;;;;;;4951283;28;20054;-86
2023/06/18 06:04:37;;;;;;;30.67;17.33;;;17.50;75.00;;;;;;4951615;28;20051;-85
2023/06/18 06:07:06;;;;;;;30.65;18.73;;;17.60;75.30;;;;;;4951470;28;20059;-86
2023/06/18 06:09:33;;;;;;;27.67;16.03;;;17.70;75.20;;;;;;4968279;28;20054;-85
2023/06/18 06:12:01;;;;;;;26.83;15.45;;;17.80;75.70;;;;;;4952833;28;20058;-85
2023/06/18 06:14:29;;;;;;;26.77;15.43;;;17.80;75.80;;;;;;4952988;28;20059;-85
2023/06/18 06:16:57;;;;;;;25.42;14.57;;;17.80;75.90;;;;;;4952309;28;20051;-85
2023/06/18 06:19:27;;;;;;;24.52;15.15;;;18.00;75.90;;;;;;4952676;28;20055;-85
2023/06/18 06:21:54;;;;;;;28.63;16.53;;;18.00;75.80;;;;;;4951220;28;20811;-85
2023/06/18 06:24:22;;;;;;;29.52;16.67;;;18.10;75.90;;;;;;4952593;28;20085;-85
2023/06/18 06:26:49;;;;;;;24.55;14.95;;;18.20;75.80;;;;;;4968471;28;20190;-85
2023/06/18 06:29:18;;;;;;;23.95;14.98;;;18.20;75.80;;;;;;4952481;28;20111;-86
2023/06/18 06:31:45;;;;;;;25.13;15.45;;;18.30;75.70;;;;;;4951035;28;20059;-86
2023/06/18 06:34:13;;;;;;;25.17;15.63;;;18.40;75.50;;;;;;4951282;28;20059;-86
2023/06/18 06:36:42;;;;;;;24.77;15.80;;;18.40;75.30;;;;;;4952486;28;20059;-85
2023/06/18 06:39:10;;;;;;;25.90;15.65;;;18.50;75.40;;;;;;4950238;28;20059;-86
2023/06/18 06:41:37;;;;;;;26.38;15.10;;;18.60;75.40;;;;;;4951793;28;20059;-86
2023/06/18 06:44:05;;;;;;;24.50;14.23;;;18.60;75.00;;;;;;4958046;28;20052;-86
2023/06/18 06:46:37;;;;;;;24.93;14.33;;;18.70;74.80;;;;;;4977950;28;20055;-86
2023/06/18 06:49:14;;;;;;;26.02;15.02;;;18.70;74.60;;;;;;4945486;28;20055;-86
2023/06/18 06:52:01;;;;;;;25.95;15.40;;;18.80;74.60;;;;;;4949285;28;20054;-86
2023/06/18 06:54:29;;;;;;;24.20;14.60;;;18.90;74.30;;;;;;4956901;28;20055;-84
2023/06/18 06:56:56;;;;;;;25.88;14.23;;;19.00;73.90;;;;;;4943213;28;20054;-86
2023/06/18 06:59:23;;;;;;;36.17;14.67;;;19.10;73.70;;;;;;4942776;28;20058;-85
2023/06/18 07:01:50;;;;;;;26.05;14.40;;;19.10;73.60;;;;;;4951443;28;20059;-86
2023/06/18 07:04:18;;;;;;;25.05;14.77;;;19.20;73.70;;;;;;4946192;28;20122;-84
2023/06/18 07:06:45;;;;;;;26.17;14.95;;;19.20;73.70;;;;;;4966483;28;20177;-85
2023/06/18 07:09:13;;;;;;;24.35;14.50;;;19.30;73.50;;;;;;4964545;28;20059;-85
2023/06/18 07:11:41;;;;;;;23.93;14.73;;;19.40;73.40;;;;;;4956805;28;20130;-85
2023/06/18 07:14:08;;;;;;;23.77;14.88;;;19.40;73.30;;;;;;4966468;28;20059;-87
2023/06/18 07:16:35;;;;;;;23.45;14.73;;;19.50;73.30;;;;;;4968212;28;20465;-85
2023/06/18 07:19:03;;;;;;;21.10;13.68;;;19.50;73.30;;;;;;4951269;28;20493;-87
2023/06/18 07:21:30;;;;;;;25.17;15.77;;;19.60;73.20;;;;;;4945451;28;20059;-88
2023/06/18 07:23:57;;;;;;;25.00;14.97;;;19.70;73.10;;;;;;4949954;28;20051;-88
2023/06/18 07:26:26;;;;;;;23.27;13.93;;;19.70;73.10;;;;;;4952079;28;20527;-87
2023/06/18 07:28:53;;;;;;;24.83;14.68;;;19.90;73.00;;;;;;4950471;28;20059;-87
2023/06/18 07:31:20;;;;;;;22.15;13.52;;;19.90;72.90;;;;;;4951537;28;20544;-87
2023/06/18 07:33:47;;;;;;;21.92;13.98;;;20.00;72.80;;;;;;4949921;28;20052;-86
2023/06/18 07:36:14;;;;;;;22.53;14.53;;;20.00;72.60;;;;;;4968291;28;20062;-85
2023/06/18 07:38:41;;;;;;;19.52;13.00;;;20.10;72.40;;;;;;4951768;28;21005;-86
2023/06/18 07:41:08;;;;;;;21.70;14.00;;;20.20;72.30;;;;;;4952505;28;20720;-84
2023/06/18 07:43:37;;;;;;;22.88;13.73;;;20.30;72.40;;;;;;4959536;28;20083;-84
2023/06/18 07:46:04;;;;;;;22.30;13.50;;;20.30;72.40;;;;;;4975196;28;20118;-86
2023/06/18 07:48:31;;;;;;;20.90;13.20;;;20.40;72.20;;;;;;4977856;28;20055;-85
2023/06/18 07:50:58;;;;;;;20.90;12.95;;;20.50;72.10;;;;;;4971131;28;20639;-85
2023/06/18 07:53:25;;;;;;;20.63;13.32;;;20.50;71.90;;;;;;4959838;28;20134;-85
2023/06/18 07:55:52;;;;;;;20.92;12.93;;;20.60;71.90;;;;;;4980218;28;20059;-86
2023/06/18 07:58:20;;;;;;;19.50;12.25;;;20.70;71.80;;;;;;4973313;28;20059;-85
2023/06/18 08:00:48;;;;;;;18.90;12.33;;;20.80;71.90;;;;;;4969598;28;20134;-86
2023/06/18 08:03:15;;;;;;;20.27;12.15;;;20.90;71.60;;;;;;4963467;28;20061;-84
2023/06/18 08:05:42;;;;;;;17.38;11.63;;;21.00;71.40;;;;;;4960777;28;20553;-85
2023/06/18 08:08:09;;;;;;;16.60;11.30;;;21.00;71.00;;;;;;4952115;28;20319;-86
2023/06/18 08:10:36;;;;;;;17.85;11.73;;;21.10;70.30;;;;;;4951448;28;20054;-85
2023/06/18 08:13:03;;;;;;;18.10;11.67;;;21.30;69.60;;;;;;4967545;28;20486;-85
2023/06/18 08:15:33;;;;;;;17.40;11.43;;;21.30;69.40;;;;;;4951443;28;20058;-85
2023/06/18 08:18:02;;;;;;;17.52;11.18;;;21.40;69.10;;;;;;4984470;28;20061;-86
2023/06/18 08:20:29;;;;;;;17.70;10.57;;;21.50;68.70;;;;;;4951645;28;20147;-84
2023/06/18 08:22:56;;;;;;;15.77;11.32;;;21.50;68.30;;;;;;4944638;28;20186;-85
2023/06/18 08:25:23;;;;;;;16.00;11.07;;;21.60;68.30;;;;;;4959335;28;20055;-84
2023/06/18 08:27:50;;;;;;;26.17;11.43;;;21.70;68.30;;;;;;4943475;28;20047;-83
2023/06/18 08:30:17;;;;;;;19.58;11.50;;;21.70;68.20;;;;;;4977970;28;20062;-84
2023/06/18 08:32:44;;;;;;;17.70;11.38;;;21.90;68.00;;;;;;4968769;28;20052;-85
2023/06/18 08:35:13;;;;;;;17.83;11.50;;;21.90;68.60;;;;;;4965832;28;20051;-84
2023/06/18 08:37:40;;;;;;;17.07;10.67;;;22.00;68.60;;;;;;4945617;28;20059;-84
2023/06/18 08:40:11;;;;;;;17.92;11.70;;;22.10;68.20;;;;;;4978322;28;20151;-85
2023/06/18 08:42:38;;;;;;;15.77;11.05;;;22.20;67.90;;;;;;4963455;28;20087;-84
2023/06/18 08:45:06;;;;;;;15.82;10.82;;;22.30;67.90;;;;;;4994549;28;20051;-83
2023/06/18 08:47:34;;;;;;;13.93;9.85;;;22.40;67.90;;;;;;4993394;28;20102;-83
2023/06/18 08:50:02;;;;;;;15.33;9.87;;;22.50;67.20;;;;;;4967803;28;20147;-84
2023/06/18 08:52:31;;;;;;;15.43;9.85;;;22.50;66.40;;;;;;4948485;28;20083;-84
2023/06/18 08:55:02;;;;;;;16.50;10.63;;;22.60;65.80;;;;;;4976208;28;20615;-85
2023/06/18 08:57:36;;;;;;;13.32;9.10;;;22.70;65.70;;;;;;4967432;28;20078;-84
2023/06/18 09:00:04;;;;;;;16.42;9.27;;;22.90;65.70;;;;;;4999406;28;20517;-84
2023/06/18 09:02:31;;;;;;;12.10;8.50;;;22.90;65.20;;;;;;4944571;28;20059;-85
2023/06/18 09:04:59;;;;;;;13.35;8.70;;;23.00;64.30;;;;;;4959144;28;20049;-84
2023/06/18 09:10:24;;;;;;;10.40;6.90;;;23.20;60.70;;;;;;5004042;28;20109;-85
2023/06/18 09:12:51;;;;;;;12.30;7.78;;;23.30;60.40;;;;;;4989873;28;20055;-86
2023/06/18 09:15:18;;;;;;;11.17;7.77;;;23.40;59.80;;;;;;4987003;28;20055;-84
2023/06/18 09:17:49;;;;;;;11.88;7.63;;;23.50;59.80;;;;;;5015336;28;20055;-84
2023/06/18 09:20:19;;;;;;;9.90;6.53;;;23.60;59.10;;;;;;4989683;28;20084;-84
2023/06/18 09:22:48;;;;;;;9.07;6.88;;;23.70;57.60;;;;;;5004774;28;20062;-84
2023/06/18 09:25:19;;;;;;;10.15;6.57;;;23.80;56.40;;;;;;4989046;28;20627;-85
2023/06/18 09:27:48;;;;;;;9.37;6.87;;;23.90;55.70;;;;;;4989038;28;20049;-84
2023/06/18 09:30:19;;;;;;;9.75;6.85;;;23.90;55.60;;;;;;5005510;28;20062;-84
2023/06/18 09:32:47;;;;;;;10.10;6.43;;;24.00;55.80;;;;;;5008871;28;20065;-83
2023/06/18 09:35:16;;;;;;;9.25;6.18;;;24.00;55.50;;;;;;4991848;28;21003;-85
2023/06/18 09:37:44;;;;;;;9.65;6.22;;;24.20;54.90;;;;;;4969765;28;20504;-82
2023/06/18 09:40:16;;;;;;;9.27;6.53;;;24.20;54.50;;;;;;4994959;28;20113;-86
2023/06/18 09:42:44;;;;;;;9.68;6.60;;;24.40;54.10;;;;;;4984771;28;20047;-87
2023/06/18 09:45:14;;;;;;;10.63;7.00;;;24.50;53.60;;;;;;4979461;28;20890;-87
2023/06/18 09:47:44;;;;;;;11.13;7.43;;;24.70;53.70;;;;;;4985945;28;20054;-84
2023/06/18 09:50:11;;;;;;;102.57;14.50;;;24.80;53.60;;;;;;5015897;28;20051;-88
2023/06/18 09:52:44;;;;;;;15.03;7.43;;;25.00;53.40;;;;;;5000751;28;20563;-86
2023/06/18 09:55:28;;;;;;;12.23;7.47;;;25.00;53.00;;;;;;4982275;28;20165;-86
2023/06/18 09:57:55;;;;;;;18.60;7.60;;;25.20;52.90;;;;;;4985713;28;20061;-82
2023/06/18 10:00:25;;;;;;;10.85;7.45;;;25.30;52.30;;;;;;4981077;28;20105;-83
2023/06/18 10:02:52;;;;;;;10.55;7.03;;;25.40;52.30;;;;;;4988722;28;20082;-84
2023/06/18 10:05:19;;;;;;;10.13;7.30;;;25.50;52.20;;;;;;4997326;28;20190;-84
2023/06/18 10:07:48;;;;;;;11.02;7.88;;;25.60;51.50;;;;;;4986289;28;20633;-84
2023/06/18 10:10:16;;;;;;;10.00;7.70;;;25.60;51.20;;;;;;4983965;28;20059;-84
2023/06/18 10:12:44;;;;;;;10.32;7.47;;;25.60;51.00;;;;;;4986520;28;20049;-85
2023/06/18 10:15:13;;;;;;;9.93;7.05;;;25.70;50.80;;;;;;4968597;28;20071;-84
2023/06/18 10:17:44;;;;;;;10.70;7.73;;;25.80;50.80;;;;;;4986662;28;20058;-84
2023/06/18 10:20:14;;;;;;;10.07;7.40;;;25.80;50.60;;;;;;4984473;28;20134;-85
2023/06/18 10:22:46;;;;;;;11.55;7.53;;;25.80;49.60;;;;;;4986760;28;20047;-84
2023/06/18 10:25:13;;;;;;;10.13;7.32;;;25.90;48.40;;;;;;4986890;28;20051;-84
2023/06/18 10:27:41;;;;;;;10.80;7.32;;;26.00;48.90;;;;;;4983464;28;20054;-83
2023/06/18 10:30:09;;;;;;;11.33;7.30;;;26.00;49.70;;;;;;4987639;28;20050;-83
2023/06/18 10:32:37;;;;;;;10.50;7.32;;;26.00;49.30;;;;;;4983490;28;20054;-83
2023/06/18 10:35:09;;;;;;;8.93;7.25;;;26.10;49.50;;;;;;4987362;28;20054;-87
2023/06/18 10:37:37;;;;;;;10.52;7.22;;;26.10;49.40;;;;;;4986310;28;20134;-84
2023/06/18 10:40:06;;;;;;;9.18;7.38;;;26.20;49.10;;;;;;4982681;28;20059;-83
2023/06/18 10:42:34;;;;;;;10.40;7.57;;;26.20;48.80;;;;;;4989253;28;20046;-85
2023/06/18 10:45:10;;;;;;;10.02;7.22;;;26.20;49.40;;;;;;4986612;28;20077;-84
2023/06/18 10:47:37;;;;;;;10.27;6.90;;;26.30;48.60;;;;;;4986955;28;20065;-85
2023/06/18 10:50:18;;;;;;;9.68;7.15;;;26.30;48.00;;;;;;4984177;28;20143;-85
2023/06/18 10:52:49;;;;;;;10.50;7.55;;;26.40;47.80;;;;;;4985034;28;20053;-84
2023/06/18 10:55:29;;;;;;;9.43;6.77;;;26.40;47.70;;;;;;4987114;28;20054;-82
2023/06/18 10:58:04;;;;;;;9.98;7.55;;;26.40;47.70;;;;;;4984659;28;20097;-82
2023/06/18 11:00:35;;;;;;;9.70;7.53;;;26.40;46.80;;;;;;4986772;28;20207;-82
2023/06/18 11:03:03;;;;;;;10.98;7.35;;;26.40;46.80;;;;;;4974270;28;20080;-83
2023/06/18 11:05:46;;;;;;;10.00;7.65;;;26.40;47.00;;;;;;4968241;28;20079;-80
2023/06/18 11:08:15;;;;;;;10.53;7.27;;;26.40;47.20;;;;;;4982574;28;20055;-81
2023/06/18 11:10:45;;;;;;;10.10;7.07;;;26.30;47.10;;;;;;4970105;28;20194;-79
2023/06/18 11:13:12;;;;;;;9.63;7.20;;;26.40;47.40;;;;;;4989821;28;20141;-80
2023/06/18 11:15:53;;;;;;;9.05;7.15;;;26.40;46.50;;;;;;4987462;28;20628;-81
2023/06/18 11:18:22;;;;;;;9.90;6.90;;;26.40;46.40;;;;;;4992223;28;20061;-81
2023/06/18 11:20:50;;;;;;;10.13;7.20;;;26.40;45.70;;;;;;4991410;28;20059;-80
2023/06/18 11:23:18;;;;;;;10.27;7.10;;;26.30;45.90;;;;;;4993934;28;20055;-82
2023/06/18 11:25:46;;;;;;;10.07;7.05;;;26.30;46.70;;;;;;4982571;28;20122;-83
2023/06/18 11:28:14;;;;;;;9.10;6.65;;;26.30;47.10;;;;;;4982408;28;20055;-82
2023/06/18 11:30:46;;;;;;;8.48;6.90;;;26.30;46.90;;;;;;4984603;28;20058;-83
2023/06/18 11:33:13;;;;;;;10.37;6.70;;;26.40;47.00;;;;;;4988697;28;20051;-82
2023/06/18 11:35:40;;;;;;;11.48;6.93;;;26.40;47.00;;;;;;4989730;28;20055;-81
2023/06/18 11:38:10;;;;;;;11.63;7.72;;;26.40;46.70;;;;;;4984269;28;20927;-80
2023/06/18 11:40:47;;;;;;;12.00;7.13;;;26.40;47.00;;;;;;4989835;28;20159;-83
2023/06/18 11:43:14;;;;;;;11.00;7.40;;;26.50;47.10;;;;;;4988391;28;20066;-80
2023/06/18 11:45:46;;;;;;;9.20;6.93;;;26.50;47.20;;;;;;4985275;28;20078;-81
2023/06/18 11:48:13;;;;;;;9.75;7.65;;;26.60;47.20;;;;;;4982449;28;20497;-81
2023/06/18 11:50:40;;;;;;;10.77;7.63;;;26.70;46.90;;;;;;4989119;28;20050;-81
2023/06/18 11:53:09;;;;;;;10.13;7.47;;;26.70;46.60;;;;;;4979102;28;20750;-80
2023/06/18 11:55:36;;;;;;;10.30;6.75;;;26.80;46.50;;;;;;4985813;28;20057;-80
2023/06/18 11:58:05;;;;;;;9.67;7.37;;;26.90;47.20;;;;;;4991236;28;20046;-82
2023/06/18 12:00:32;;;;;;;9.40;7.28;;;26.90;48.00;;;;;;4997793;28;20051;-81
2023/06/18 12:03:00;;;;;;;9.77;7.30;;;27.00;47.90;;;;;;4987679;28;20110;-82
2023/06/18 12:05:34;;;;;;;10.95;8.20;;;27.10;47.70;;;;;;4985772;28;20046;-83
2023/06/18 12:08:10;;;;;;;13.70;7.90;;;27.10;46.90;;;;;;4989875;28;20234;-82
2023/06/18 12:10:38;;;;;;;10.10;7.93;;;27.20;46.00;;;;;;4990019;28;20061;-81
2023/06/18 12:13:15;;;;;;;9.60;7.18;;;27.30;45.50;;;;;;4988789;28;20053;-82
2023/06/18 12:15:50;;;;;;;9.55;7.30;;;27.30;45.20;;;;;;4991049;28;20133;-82
2023/06/18 12:18:23;;;;;;;8.95;7.75;;;27.40;45.90;;;;;;4989728;28;20150;-82
2023/06/18 12:20:52;;;;;;;8.18;7.32;;;27.40;45.50;;;;;;4984208;28;20133;-81
2023/06/18 12:23:22;;;;;;;9.37;7.20;;;27.50;45.30;;;;;;4989549;28;20051;-81
2023/06/18 12:25:49;;;;;;;9.90;7.55;;;27.50;45.10;;;;;;4988374;28;20082;-81
2023/06/18 12:28:16;;;;;;;8.63;7.30;;;27.70;44.70;;;;;;4989155;28;20058;-81
2023/06/18 12:30:44;;;;;;;8.82;7.70;;;27.80;44.90;;;;;;4989374;28;20057;-81
2023/06/18 12:33:12;;;;;;;8.98;7.28;;;27.90;44.30;;;;;;4989352;28;20051;-81
2023/06/18 12:35:45;;;;;;;9.20;7.47;;;28.00;43.90;;;;;;4989070;28;20098;-82
2023/06/18 12:38:12;;;;;;;9.32;7.30;;;28.00;43.70;;;;;;4975356;28;20148;-81
2023/06/18 12:40:47;;;;;;;10.30;7.97;;;28.10;43.30;;;;;;4994133;28;20133;-81
2023/06/18 12:43:17;;;;;;;9.60;7.45;;;28.10;43.20;;;;;;4995145;28;20051;-81